Time;durP1;ratioP1;P1;durP2;ratioP2;P2;SDS_P1;SDS_P2;PMS_P1;PMS_P2;Temp;Humidity;BMP_temperature;BMP_pressure;BME280_temperature;BME280_humidity;BME280_pressure;Samples;Min_cycle;Max_cycle;Signal;HPM_P1;HPM_P2
2023/12/20 00:01:58;;;;;;;12.90;9.40;;;10.20;99.90;;;;;;5091150;28;20247;-83
2023/12/20 00:04:25;;;;;;;7.68;6.90;;;10.20;99.90;;;;;;5091410;28;20219;-83
2023/12/20 00:06:52;;;;;;;5.72;5.22;;;10.20;99.90;;;;;;5091102;28;20364;-83
2023/12/20 00:09:19;;;;;;;7.00;5.72;;;10.30;99.90;;;;;;5092644;28;20307;-83
2023/12/20 00:11:48;;;;;;;7.25;6.63;;;10.30;99.90;;;;;;5092354;28;20229;-83
2023/12/20 00:14:15;;;;;;;6.72;5.93;;;10.20;99.90;;;;;;5093939;28;20226;-83
2023/12/20 00:16:42;;;;;;;5.85;5.35;;;10.20;99.90;;;;;;5081827;28;20586;-82
2023/12/20 00:19:10;;;;;;;8.95;7.63;;;10.20;99.90;;;;;;5076646;28;20231;-83
2023/12/20 00:21:37;;;;;;;5.72;5.20;;;10.20;99.90;;;;;;5076114;28;20254;-83
2023/12/20 00:24:05;;;;;;;5.30;4.90;;;10.20;99.90;;;;;;5083624;28;20661;-83
2023/12/20 00:26:32;;;;;;;6.75;4.85;;;10.20;99.90;;;;;;5095647;28;20254;-83
2023/12/20 00:29:02;;;;;;;6.22;5.63;;;10.20;99.90;;;;;;5096032;28;20227;-83
2023/12/20 00:31:29;;;;;;;6.30;5.68;;;10.20;99.90;;;;;;5096321;28;20216;-77
2023/12/20 00:33:56;;;;;;;4.60;4.30;;;10.20;99.90;;;;;;5095580;28;20251;-78
2023/12/20 00:36:24;;;;;;;5.65;5.15;;;10.20;99.90;;;;;;5096123;28;20295;-77
2023/12/20 00:38:51;;;;;;;9.90;8.93;;;10.10;99.90;;;;;;5095558;28;20685;-77
2023/12/20 00:41:18;;;;;;;7.15;5.68;;;10.10;99.90;;;;;;5095372;28;20227;-83
2023/12/20 00:43:45;;;;;;;7.38;5.70;;;10.10;99.90;;;;;;5095810;28;20298;-77
2023/12/20 00:46:12;;;;;;;6.90;6.20;;;10.10;99.90;;;;;;5095860;28;20670;-76
2023/12/20 00:48:41;;;;;;;6.07;5.47;;;10.10;99.90;;;;;;5095030;28;20285;-77
2023/12/20 00:51:09;;;;;;;10.75;9.63;;;10.10;99.90;;;;;;5095449;28;20265;-77
2023/12/20 00:53:37;;;;;;;9.98;8.88;;;10.10;99.90;;;;;;5095883;28;20284;-77
2023/12/20 00:56:04;;;;;;;5.85;5.35;;;10.10;99.90;;;;;;5094909;28;20224;-77
2023/12/20 00:58:32;;;;;;;6.30;5.70;;;10.10;99.90;;;;;;5095592;28;20310;-77
2023/12/20 01:00:59;;;;;;;6.85;6.25;;;10.10;99.90;;;;;;5095228;28;20307;-77
2023/12/20 01:03:26;;;;;;;6.05;5.50;;;10.10;99.90;;;;;;5095441;28;20227;-77
2023/12/20 01:05:53;;;;;;;14.77;9.90;;;10.10;99.90;;;;;;5094853;28;20227;-77
2023/12/20 01:08:20;;;;;;;9.10;6.78;;;10.00;99.90;;;;;;5095336;28;20231;-78
2023/12/20 01:10:48;;;;;;;7.82;7.05;;;10.00;99.90;;;;;;5094615;28;20223;-78
2023/12/20 01:13:15;;;;;;;16.40;11.35;;;10.00;99.90;;;;;;5095334;28;20235;-82
2023/12/20 01:15:42;;;;;;;6.18;5.72;;;10.00;99.90;;;;;;5089777;28;20215;-82
2023/12/20 01:18:09;;;;;;;7.90;7.10;;;10.00;99.90;;;;;;5074812;28;20228;-82
2023/12/20 01:20:36;;;;;;;8.93;7.95;;;10.10;99.90;;;;;;5075098;28;20227;-83
2023/12/20 01:23:04;;;;;;;6.20;5.60;;;10.10;99.90;;;;;;5074097;28;20247;-82
2023/12/20 01:25:30;;;;;;;8.05;7.30;;;10.10;99.90;;;;;;5074602;28;20212;-83
2023/12/20 01:27:59;;;;;;;7.45;6.75;;;10.10;99.90;;;;;;5074629;28;20270;-82
2023/12/20 01:30:26;;;;;;;8.20;7.47;;;10.10;99.90;;;;;;5086011;28;20276;-83
2023/12/20 01:32:53;;;;;;;6.80;6.20;;;10.10;99.90;;;;;;5094903;28;20230;-77
2023/12/20 01:35:21;;;;;;;5.88;5.38;;;10.10;99.90;;;;;;5085979;28;20253;-77
2023/12/20 01:37:48;;;;;;;8.93;7.72;;;10.20;99.90;;;;;;5095202;28;20230;-77
2023/12/20 01:40:15;;;;;;;10.45;9.35;;;10.10;99.90;;;;;;5094201;28;20561;-77
2023/12/20 01:42:42;;;;;;;7.20;6.50;;;10.10;99.90;;;;;;5094556;28;20230;-83
2023/12/20 01:45:14;;;;;;;4.97;4.53;;;10.10;99.90;;;;;;5094572;28;20219;-83
2023/12/20 01:47:42;;;;;;;5.60;5.10;;;10.10;99.90;;;;;;5096658;28;20238;-84
2023/12/20 01:50:09;;;;;;;5.15;4.65;;;10.10;99.90;;;;;;5095393;28;20238;-84
2023/12/20 01:52:37;;;;;;;4.45;4.05;;;10.10;99.90;;;;;;5094982;28;20223;-83
2023/12/20 01:55:12;;;;;;;4.40;4.10;;;10.00;99.90;;;;;;5079674;28;20216;-83
2023/12/20 01:57:39;;;;;;;4.30;4.00;;;10.10;99.90;;;;;;5083005;28;20215;-83
2023/12/20 02:00:13;;;;;;;3.60;3.30;;;10.10;99.90;;;;;;5089778;28;20238;-82
2023/12/20 02:02:41;;;;;;;4.38;3.88;;;10.00;99.90;;;;;;5075013;28;20228;-81
2023/12/20 02:05:16;;;;;;;5.13;4.63;;;10.00;99.90;;;;;;5076993;28;20309;-83
2023/12/20 02:07:43;;;;;;;5.07;4.50;;;10.00;99.90;;;;;;5090374;28;20242;-83
2023/12/20 02:10:10;;;;;;;3.85;3.30;;;10.00;99.90;;;;;;5094720;28;20318;-84
2023/12/20 02:12:37;;;;;;;7.57;4.32;;;10.00;99.90;;;;;;5094165;28;20227;-78
2023/12/20 02:15:06;;;;;;;4.90;4.25;;;10.00;99.90;;;;;;5093127;28;20238;-79
2023/12/20 02:17:35;;;;;;;4.05;3.00;;;9.90;99.90;;;;;;5094486;28;20227;-79
2023/12/20 02:20:02;;;;;;;2.65;2.45;;;9.90;99.90;;;;;;5093627;28;20227;-78
2023/12/20 02:22:31;;;;;;;3.53;2.55;;;9.90;99.90;;;;;;5093793;28;20219;-78
2023/12/20 02:25:02;;;;;;;2.65;1.90;;;9.90;99.90;;;;;;5093133;28;20223;-78
2023/12/20 02:27:30;;;;;;;4.43;2.40;;;9.90;99.90;;;;;;5093759;28;20220;-78
2023/12/20 02:29:58;;;;;;;3.97;3.45;;;9.90;99.90;;;;;;5093631;28;20219;-84
2023/12/20 02:32:27;;;;;;;3.90;2.75;;;9.90;99.90;;;;;;5094326;28;20227;-84
2023/12/20 02:34:55;;;;;;;4.78;2.58;;;9.90;99.90;;;;;;5093658;28;20231;-78
2023/12/20 02:37:22;;;;;;;2.60;2.30;;;9.90;99.90;;;;;;5092923;28;20226;-78
2023/12/20 02:39:50;;;;;;;3.70;3.22;;;9.80;99.90;;;;;;5093815;28;20223;-84
2023/12/20 02:42:17;;;;;;;2.53;2.33;;;9.90;99.90;;;;;;5093491;28;22381;-84
2023/12/20 02:44:44;;;;;;;2.50;2.30;;;9.90;99.90;;;;;;5093861;28;20215;-84
2023/12/20 02:47:11;;;;;;;2.85;2.65;;;9.90;99.90;;;;;;5093376;28;20254;-85
2023/12/20 02:49:38;;;;;;;3.40;3.10;;;9.90;99.90;;;;;;5093962;28;20219;-78
2023/12/20 02:52:06;;;;;;;3.97;3.63;;;9.80;99.90;;;;;;5092342;28;20719;-85
2023/12/20 02:54:33;;;;;;;4.07;3.35;;;9.90;99.90;;;;;;5093636;28;20231;-78
2023/12/20 02:57:01;;;;;;;4.00;3.63;;;9.90;99.90;;;;;;5092998;28;20224;-78
2023/12/20 02:59:28;;;;;;;3.33;3.10;;;9.90;99.90;;;;;;5093646;28;20680;-78
2023/12/20 03:01:55;;;;;;;3.83;3.47;;;9.80;99.90;;;;;;5093718;28;20227;-78
2023/12/20 03:04:22;;;;;;;4.72;4.30;;;9.90;99.90;;;;;;5093153;28;20223;-85
2023/12/20 03:06:49;;;;;;;6.15;3.42;;;9.80;99.90;;;;;;5093170;28;20226;-85
2023/12/20 03:09:17;;;;;;;3.95;3.65;;;9.80;99.90;;;;;;5092569;28;20231;-84
2023/12/20 03:11:44;;;;;;;3.60;3.35;;;9.80;99.90;;;;;;5093320;28;20564;-78
2023/12/20 03:14:12;;;;;;;4.25;3.63;;;9.80;99.90;;;;;;5093026;28;20231;-78
2023/12/20 03:16:42;;;;;;;8.15;6.20;;;9.80;99.90;;;;;;5092083;28;20230;-84
2023/12/20 03:19:09;;;;;;;4.22;3.45;;;9.80;99.90;;;;;;5072391;28;20235;-85
2023/12/20 03:21:36;;;;;;;3.65;3.13;;;9.80;99.90;;;;;;5073427;28;20306;-84
2023/12/20 03:24:03;;;;;;;3.38;2.65;;;9.80;99.90;;;;;;5072512;28;20223;-83
2023/12/20 03:26:30;;;;;;;4.22;2.92;;;9.80;99.90;;;;;;5072688;28;20220;-84
2023/12/20 03:28:57;;;;;;;5.47;4.50;;;9.80;99.90;;;;;;5072933;28;20614;-78
2023/12/20 03:31:26;;;;;;;3.65;2.92;;;9.80;99.90;;;;;;5091299;28;20288;-83
2023/12/20 03:33:54;;;;;;;12.15;5.68;;;9.70;99.90;;;;;;5093288;28;20337;-83
2023/12/20 03:36:22;;;;;;;5.13;2.45;;;9.80;99.90;;;;;;5092796;28;20230;-83
2023/12/20 03:38:49;;;;;;;3.40;3.10;;;9.80;99.90;;;;;;5093263;28;20223;-78
2023/12/20 03:41:16;;;;;;;3.00;2.67;;;9.70;99.90;;;;;;5092721;28;20250;-83
2023/12/20 03:43:43;;;;;;;5.43;3.28;;;9.70;99.90;;;;;;5092820;28;20219;-78
2023/12/20 03:46:10;;;;;;;4.18;2.83;;;9.70;99.90;;;;;;5092382;28;20368;-83
2023/12/20 03:48:38;;;;;;;7.00;5.05;;;9.70;99.90;;;;;;5093419;28;20227;-79
2023/12/20 03:51:05;;;;;;;2.85;2.47;;;9.70;99.90;;;;;;5096244;28;20226;-79
2023/12/20 03:53:32;;;;;;;3.50;2.45;;;9.70;99.90;;;;;;5096060;28;20237;-79
2023/12/20 03:55:59;;;;;;;2.95;2.33;;;9.70;99.90;;;;;;5097317;28;20562;-84
2023/12/20 03:58:26;;;;;;;6.88;2.50;;;9.70;99.90;;;;;;5096489;28;20547;-83
2023/12/20 04:00:53;;;;;;;8.18;5.38;;;9.70;99.90;;;;;;5096902;28;20231;-84
2023/12/20 04:03:20;;;;;;;8.30;2.53;;;9.60;99.90;;;;;;5096449;28;20230;-83
2023/12/20 04:05:49;;;;;;;5.32;2.60;;;9.60;99.90;;;;;;5096820;28;20793;-83
2023/12/20 04:08:16;;;;;;;6.68;3.85;;;9.60;99.90;;;;;;5094943;28;20306;-78
2023/12/20 04:10:43;;;;;;;4.45;2.15;;;9.60;99.90;;;;;;5096475;28;20686;-79
2023/12/20 04:13:10;;;;;;;7.65;2.65;;;9.50;99.90;;;;;;5095945;28;20231;-78
2023/12/20 04:15:38;;;;;;;3.85;3.17;;;9.50;99.90;;;;;;5096978;28;20699;-78
2023/12/20 04:18:05;;;;;;;8.30;4.40;;;9.50;99.90;;;;;;5096455;28;20231;-79
2023/12/20 04:20:35;;;;;;;6.70;3.50;;;9.50;99.90;;;;;;5095971;28;20219;-79
2023/12/20 04:23:04;;;;;;;4.45;1.98;;;9.40;99.90;;;;;;5096217;28;20234;-79
2023/12/20 04:25:31;;;;;;;6.45;1.95;;;9.40;99.90;;;;;;5087829;28;20216;-83
2023/12/20 04:27:58;;;;;;;5.60;2.92;;;9.40;99.90;;;;;;5075943;28;20673;-83
2023/12/20 04:30:25;;;;;;;16.70;9.43;;;9.40;99.90;;;;;;5075614;28;20224;-83
2023/12/20 04:32:52;;;;;;;5.95;2.60;;;9.40;99.90;;;;;;5075735;28;20223;-79
2023/12/20 04:35:19;;;;;;;3.83;2.30;;;9.40;99.90;;;;;;5064890;28;20231;-83
2023/12/20 04:37:47;;;;;;;7.88;3.20;;;9.30;99.90;;;;;;5074390;28;20614;-83
2023/12/20 04:40:15;;;;;;;5.05;2.53;;;9.30;99.90;;;;;;5073382;28;20639;-83
2023/12/20 04:42:42;;;;;;;3.67;2.22;;;9.30;99.90;;;;;;5073809;28;20670;-83
2023/12/20 04:45:12;;;;;;;6.70;1.98;;;9.30;99.90;;;;;;5073935;28;20256;-79
2023/12/20 04:47:39;;;;;;;3.25;2.40;;;9.30;99.90;;;;;;5073757;28;20295;-82
2023/12/20 04:50:08;;;;;;;5.40;3.30;;;9.30;99.90;;;;;;5073791;28;20220;-83
2023/12/20 04:52:35;;;;;;;4.70;2.83;;;9.30;99.90;;;;;;5075305;28;20231;-79
2023/12/20 04:55:02;;;;;;;3.75;1.90;;;9.30;99.90;;;;;;5075461;28;20224;-83
2023/12/20 04:57:31;;;;;;;4.47;3.08;;;9.30;99.90;;;;;;5075226;28;20673;-79
2023/12/20 04:59:57;;;;;;;6.95;4.82;;;9.20;99.90;;;;;;5075173;28;20673;-82
2023/12/20 05:02:24;;;;;;;5.63;2.67;;;9.20;99.90;;;;;;5073300;28;20633;-79
2023/12/20 05:04:54;;;;;;;6.82;2.88;;;9.20;99.90;;;;;;5065486;28;20215;-79
2023/12/20 05:07:21;;;;;;;3.50;2.15;;;9.20;99.90;;;;;;5073217;28;20224;-79
2023/12/20 05:09:48;;;;;;;6.05;2.97;;;9.20;99.90;;;;;;5074815;28;20299;-79
2023/12/20 05:12:15;;;;;;;2.40;2.20;;;9.20;99.90;;;;;;5075071;28;20231;-83
2023/12/20 05:14:43;;;;;;;8.88;3.58;;;9.20;99.90;;;;;;5064800;28;20216;-82
2023/12/20 05:17:11;;;;;;;6.00;2.88;;;9.20;99.90;;;;;;5075397;28;20219;-83
2023/12/20 05:19:37;;;;;;;10.80;3.13;;;9.20;99.90;;;;;;5074963;28;20234;-79
2023/12/20 05:22:05;;;;;;;8.57;5.65;;;9.20;99.90;;;;;;5074578;28;20670;-79
2023/12/20 05:24:32;;;;;;;4.60;2.67;;;9.10;99.90;;;;;;5074122;28;20243;-79
2023/12/20 05:26:58;;;;;;;5.57;2.75;;;9.10;99.90;;;;;;5075204;28;20232;-83
2023/12/20 05:29:26;;;;;;;6.82;3.00;;;9.10;99.90;;;;;;5074863;28;20232;-79
2023/12/20 05:32:00;;;;;;;8.45;2.92;;;9.10;99.90;;;;;;5074970;28;20243;-83
2023/12/20 05:34:27;;;;;;;3.38;2.30;;;9.10;99.90;;;;;;5074156;28;20223;-82
2023/12/20 05:36:54;;;;;;;4.72;2.25;;;9.10;99.90;;;;;;5074674;28;20235;-83
2023/12/20 05:39:21;;;;;;;6.20;2.95;;;9.10;99.90;;;;;;5074884;28;20230;-79
2023/12/20 05:41:48;;;;;;;9.77;5.32;;;9.00;99.90;;;;;;5073935;28;20285;-83
2023/12/20 05:44:15;;;;;;;14.05;7.93;;;9.00;99.90;;;;;;5074978;28;20692;-83
2023/12/20 05:46:42;;;;;;;11.15;6.22;;;9.00;99.90;;;;;;5074605;28;20325;-83
2023/12/20 05:49:10;;;;;;;14.18;9.25;;;9.00;99.90;;;;;;5075778;28;20247;-83
2023/12/20 05:51:37;;;;;;;18.67;9.30;;;9.00;99.90;;;;;;5075189;28;20220;-83
2023/12/20 05:54:05;;;;;;;13.55;7.97;;;9.00;99.90;;;;;;5075688;28;20299;-79
2023/12/20 05:56:32;;;;;;;9.23;3.70;;;8.90;99.90;;;;;;5075027;28;20224;-79
2023/12/20 05:58:58;;;;;;;5.78;3.42;;;8.90;99.90;;;;;;5075923;28;20235;-78
2023/12/20 06:01:25;;;;;;;18.45;8.63;;;8.90;99.90;;;;;;5075235;28;20273;-82
2023/12/20 06:03:52;;;;;;;6.65;2.72;;;8.90;99.90;;;;;;5079080;28;20243;-79
2023/12/20 06:06:21;;;;;;;6.68;4.40;;;8.90;99.90;;;;;;5080690;28;20228;-79
2023/12/20 06:08:48;;;;;;;9.05;3.95;;;8.90;99.90;;;;;;5083570;28;20223;-79
2023/12/20 06:11:15;;;;;;;10.45;3.67;;;8.90;99.90;;;;;;5083470;28;20220;-80
2023/12/20 06:13:42;;;;;;;4.28;2.95;;;8.90;99.90;;;;;;5078679;28;20608;-79
2023/12/20 06:16:11;;;;;;;7.18;3.30;;;8.80;99.90;;;;;;5075394;28;20259;-78
2023/12/20 06:18:38;;;;;;;9.30;5.28;;;8.80;99.90;;;;;;5074097;28;20252;-82
2023/12/20 06:21:07;;;;;;;5.72;4.10;;;8.90;99.90;;;;;;5074897;28;20303;-82
2023/12/20 06:23:35;;;;;;;11.55;4.50;;;8.80;99.90;;;;;;5073510;28;20265;-82
2023/12/20 06:26:02;;;;;;;6.45;4.22;;;8.80;99.90;;;;;;5073947;28;20231;-83
2023/12/20 06:28:32;;;;;;;5.78;3.88;;;8.80;99.90;;;;;;5067724;28;20694;-82
2023/12/20 06:31:00;;;;;;;6.38;3.15;;;8.80;99.90;;;;;;5073733;28;20236;-83
2023/12/20 06:33:27;;;;;;;7.20;4.40;;;8.80;99.90;;;;;;5073794;28;20619;-83
2023/12/20 06:35:54;;;;;;;9.95;3.88;;;8.80;99.90;;;;;;5073196;28;20257;-82
2023/12/20 06:38:22;;;;;;;12.73;5.05;;;8.80;99.90;;;;;;5073523;28;20302;-79
2023/12/20 06:40:50;;;;;;;9.65;5.53;;;8.80;99.90;;;;;;5073861;28;20224;-83
2023/12/20 06:43:17;;;;;;;5.32;3.20;;;8.80;99.90;;;;;;5073469;28;20228;-83
2023/12/20 06:45:44;;;;;;;5.70;3.85;;;8.80;99.90;;;;;;5072542;28;20223;-82
2023/12/20 06:48:13;;;;;;;7.75;4.95;;;8.70;99.90;;;;;;5073592;28;20228;-83
2023/12/20 06:50:40;;;;;;;8.40;3.58;;;8.70;99.90;;;;;;5072300;28;20772;-83
2023/12/20 06:53:08;;;;;;;7.63;3.60;;;8.70;99.90;;;;;;5072927;28;20236;-79
2023/12/20 06:55:36;;;;;;;11.35;3.70;;;8.70;99.90;;;;;;5072538;28;20727;-78
2023/12/20 07:01:30;;;;;;;5.32;3.95;;;8.70;99.90;;;;;;5049096;28;20242;-82
2023/12/20 07:03:57;;;;;;;11.52;4.95;;;8.70;99.90;;;;;;5073421;28;20315;-78
2023/12/20 07:06:25;;;;;;;8.80;5.95;;;8.60;99.90;;;;;;5072614;28;20556;-81
2023/12/20 07:08:53;;;;;;;9.95;3.80;;;8.50;99.90;;;;;;5073559;28;20302;-82
2023/12/20 07:11:32;;;;;;;7.55;4.43;;;8.60;99.90;;;;;;5073314;28;20227;-82
2023/12/20 07:14:01;;;;;;;15.60;10.10;;;8.60;99.90;;;;;;5073732;28;20235;-82
2023/12/20 07:16:28;;;;;;;7.88;4.15;;;8.60;99.90;;;;;;5073337;28;20207;-81
2023/12/20 07:18:56;;;;;;;20.90;10.38;;;8.60;99.90;;;;;;5073456;28;20219;-83
2023/12/20 07:21:54;;;;;;;9.35;3.10;;;8.60;99.90;;;;;;5063432;28;20224;-82
2023/12/20 07:24:34;;;;;;;4.80;3.28;;;8.60;99.90;;;;;;5073921;28;20642;-82
2023/12/20 07:27:02;;;;;;;13.18;3.40;;;8.70;99.90;;;;;;5077238;28;20219;-81
2023/12/20 07:29:30;;;;;;;7.65;2.88;;;8.70;99.90;;;;;;5076597;28;20239;-82
2023/12/20 07:31:57;;;;;;;19.88;12.95;;;8.70;99.90;;;;;;5076887;28;20232;-81
2023/12/20 07:34:24;;;;;;;6.60;3.92;;;8.70;99.90;;;;;;5076829;28;20301;-82
2023/12/20 07:36:51;;;;;;;8.10;3.85;;;8.70;99.90;;;;;;5077392;28;20565;-82
2023/12/20 07:39:18;;;;;;;10.90;4.90;;;8.70;99.90;;;;;;5076496;28;20224;-81
2023/12/20 07:42:10;;;;;;;5.95;2.92;;;8.70;99.90;;;;;;5076275;28;20623;-81
2023/12/20 07:44:38;;;;;;;11.57;3.40;;;8.60;99.90;;;;;;5076983;28;20615;-81
2023/12/20 07:50:24;;;;;;;8.02;3.30;;;8.60;99.90;;;;;;5077047;28;20219;-83
2023/12/20 07:52:51;;;;;;;9.02;5.07;;;8.60;99.90;;;;;;5075680;28;20259;-82
2023/12/20 07:55:18;;;;;;;14.07;8.40;;;8.60;99.90;;;;;;5076808;28;20220;-82
2023/12/20 07:57:45;;;;;;;15.65;9.07;;;8.60;99.90;;;;;;5076605;28;20227;-82
2023/12/20 08:00:26;;;;;;;8.57;5.45;;;8.60;99.90;;;;;;5075076;28;20310;-82
2023/12/20 08:02:55;;;;;;;10.27;4.32;;;8.60;99.90;;;;;;5075936;28;20236;-82
2023/12/20 08:05:22;;;;;;;9.70;4.10;;;8.60;99.90;;;;;;5076495;28;20239;-82
2023/12/20 08:07:52;;;;;;;16.08;6.50;;;8.60;99.90;;;;;;5076092;28;20219;-82
2023/12/20 08:10:20;;;;;;;9.65;4.60;;;8.60;99.90;;;;;;5075989;28;20212;-82
2023/12/20 08:12:48;;;;;;;13.32;8.07;;;8.60;99.90;;;;;;5076644;28;20251;-82
2023/12/20 08:15:16;;;;;;;5.22;3.47;;;8.60;99.90;;;;;;5075763;28;20235;-82
2023/12/20 08:17:43;;;;;;;11.95;4.30;;;8.60;99.90;;;;;;5076588;28;20231;-82
2023/12/20 08:20:11;;;;;;;8.52;4.40;;;8.70;99.90;;;;;;5075811;28;20307;-82
2023/12/20 08:22:38;;;;;;;7.75;5.40;;;8.70;99.90;;;;;;5076221;28;20232;-82
2023/12/20 08:25:05;;;;;;;12.88;3.80;;;8.70;99.90;;;;;;5075423;28;20247;-82
2023/12/20 08:27:33;;;;;;;11.95;3.67;;;8.70;99.90;;;;;;5076130;28;20228;-82
2023/12/20 08:30:00;;;;;;;17.25;8.77;;;8.70;99.90;;;;;;5075783;28;20242;-81
2023/12/20 08:32:28;;;;;;;6.90;4.72;;;8.70;99.90;;;;;;5076212;28;20227;-82
2023/12/20 08:34:55;;;;;;;12.55;4.88;;;8.70;99.90;;;;;;5076089;28;20224;-82
2023/12/20 08:37:22;;;;;;;7.25;2.95;;;8.60;99.90;;;;;;5075413;28;20220;-82
2023/12/20 08:39:49;;;;;;;11.43;5.40;;;8.60;99.90;;;;;;5075720;28;20228;-82
2023/12/20 08:42:16;;;;;;;8.60;4.22;;;8.70;99.90;;;;;;5075022;28;20235;-82
2023/12/20 08:44:52;;;;;;;4.38;2.97;;;8.70;99.90;;;;;;5076120;28;20220;-82
2023/12/20 08:47:19;;;;;;;10.77;3.00;;;8.70;99.90;;;;;;5064790;28;20219;-82
2023/12/20 08:49:48;;;;;;;11.27;3.15;;;8.70;99.90;;;;;;5075530;28;20220;-82
2023/12/20 08:52:33;;;;;;;5.18;2.58;;;8.80;99.90;;;;;;5065764;28;20228;-81
2023/12/20 08:55:00;;;;;;;15.52;7.95;;;8.80;99.90;;;;;;5075377;28;20673;-81
2023/12/20 08:57:28;;;;;;;11.57;8.43;;;8.80;99.90;;;;;;5079042;28;20674;-82
2023/12/20 08:59:55;;;;;;;14.98;7.75;;;8.90;99.90;;;;;;5075754;28;20541;-82
2023/12/20 09:02:22;;;;;;;11.25;4.97;;;8.90;99.90;;;;;;5075599;28;20227;-82
2023/12/20 09:04:50;;;;;;;7.85;4.35;;;8.90;99.90;;;;;;5074704;28;20802;-82
2023/12/20 09:07:24;;;;;;;7.18;3.28;;;8.90;99.90;;;;;;5066467;28;20248;-82
2023/12/20 09:09:51;;;;;;;19.35;9.57;;;8.90;99.90;;;;;;5074648;28;20228;-82
2023/12/20 09:12:19;;;;;;;10.85;3.95;;;9.00;99.90;;;;;;5075268;28;20700;-82
2023/12/20 09:14:46;;;;;;;6.88;3.20;;;9.00;99.90;;;;;;5074817;28;20262;-82
2023/12/20 09:17:18;;;;;;;13.05;5.50;;;9.10;99.90;;;;;;5074880;28;20220;-82
2023/12/20 09:20:28;;;;;;;11.35;4.45;;;9.10;99.90;;;;;;5075515;28;20223;-81
2023/12/20 09:23:40;;;;;;;12.25;6.22;;;9.10;99.90;;;;;;5059669;28;20301;-82
2023/12/20 09:26:09;;;;;;;8.10;3.80;;;9.10;99.90;;;;;;5071654;28;20630;-81
2023/12/20 09:29:16;;;;;;;8.88;4.70;;;9.10;99.90;;;;;;5074880;28;20248;-78
2023/12/20 09:31:46;;;;;;;6.32;3.80;;;9.20;99.90;;;;;;5074479;28;20657;-78
2023/12/20 09:34:13;;;;;;;12.32;7.22;;;9.20;99.90;;;;;;5074369;28;20227;-78
2023/12/20 09:36:46;;;;;;;9.48;4.80;;;9.20;99.90;;;;;;5074622;28;20307;-79
2023/12/20 09:39:14;;;;;;;11.13;6.10;;;9.20;99.90;;;;;;5074847;28;20646;-78
2023/12/20 09:41:49;;;;;;;6.80;3.22;;;9.20;99.90;;;;;;5073512;28;20577;-78
2023/12/20 09:44:21;;;;;;;16.25;5.88;;;9.20;99.90;;;;;;5074474;28;20219;-78
2023/12/20 09:46:51;;;;;;;10.48;6.28;;;9.30;99.90;;;;;;5073963;28;20216;-78
2023/12/20 09:49:20;;;;;;;12.82;6.50;;;9.30;99.90;;;;;;5074678;28;20219;-78
2023/12/20 09:51:47;;;;;;;6.53;3.80;;;9.30;99.90;;;;;;5074203;28;20669;-78
2023/12/20 09:54:16;;;;;;;11.88;4.30;;;9.30;99.90;;;;;;5074755;28;20266;-78
2023/12/20 09:56:46;;;;;;;8.10;5.13;;;9.20;99.90;;;;;;5065704;28;20224;-79
2023/12/20 09:59:15;;;;;;;6.28;3.00;;;9.20;99.90;;;;;;5064593;28;20220;-78
2023/12/20 10:01:43;;;;;;;10.07;5.15;;;9.20;99.90;;;;;;5073748;28;20248;-78
2023/12/20 10:04:12;;;;;;;8.18;4.68;;;9.20;99.90;;;;;;5074231;28;20222;-78
2023/12/20 10:06:57;;;;;;;9.35;4.60;;;9.30;99.90;;;;;;5079767;28;20224;-78
2023/12/20 10:09:25;;;;;;;14.20;4.63;;;9.30;99.90;;;;;;5073404;28;20228;-78
2023/12/20 10:12:15;;;;;;;4.97;3.38;;;9.30;99.90;;;;;;5080433;28;20230;-78
2023/12/20 10:14:45;;;;;;;6.32;3.65;;;9.30;99.90;;;;;;5079008;28;20307;-82
2023/12/20 10:17:12;;;;;;;13.60;4.25;;;9.40;99.90;;;;;;5081412;28;20220;-82
2023/12/20 10:19:40;;;;;;;7.50;3.90;;;9.40;99.90;;;;;;5080231;28;20249;-82
2023/12/20 10:22:07;;;;;;;10.25;4.50;;;9.30;99.90;;;;;;5078527;28;20230;-81
2023/12/20 10:24:33;;;;;;;5.90;3.20;;;9.30;99.90;;;;;;5078085;28;20220;-82
2023/12/20 10:27:06;;;;;;;7.75;2.70;;;9.40;99.90;;;;;;5075223;28;20664;-82
2023/12/20 10:29:36;;;;;;;2.60;1.85;;;9.40;99.90;;;;;;5075150;28;20314;-82
2023/12/20 10:32:30;;;;;;;9.75;4.20;;;9.40;99.90;;;;;;5077043;28;20231;-81
2023/12/20 10:35:00;;;;;;;10.07;3.22;;;9.40;99.90;;;;;;5084678;28;20235;-78
2023/12/20 10:37:27;;;;;;;10.60;3.38;;;9.50;99.90;;;;;;5083423;28;20250;-78
2023/12/20 10:39:57;;;;;;;9.60;3.17;;;9.50;99.90;;;;;;5079673;28;20235;-79
2023/12/20 10:42:29;;;;;;;7.40;3.63;;;9.50;99.90;;;;;;5075127;28;20247;-78
2023/12/20 10:45:16;;;;;;;3.90;2.15;;;9.50;99.90;;;;;;5075407;28;20247;-78
2023/12/20 10:47:47;;;;;;;6.80;3.65;;;9.50;99.90;;;;;;5074565;28;20323;-82
2023/12/20 10:50:39;;;;;;;8.20;3.80;;;9.50;99.90;;;;;;5075201;28;20233;-78
2023/12/20 10:53:07;;;;;;;6.05;4.00;;;9.50;99.90;;;;;;5074188;28;20232;-82
2023/12/20 10:55:35;;;;;;;10.18;3.83;;;9.40;99.90;;;;;;5064383;28;20227;-82
2023/12/20 10:58:05;;;;;;;4.75;3.00;;;9.40;99.90;;;;;;5072486;28;20232;-79
2023/12/20 11:00:37;;;;;;;11.57;5.07;;;9.40;99.90;;;;;;5074438;28;20224;-82
2023/12/20 11:03:10;;;;;;;9.88;3.50;;;9.50;99.90;;;;;;5075321;28;20232;-82
2023/12/20 11:05:46;;;;;;;10.70;5.95;;;9.50;99.90;;;;;;5074186;28;20657;-81
2023/12/20 11:08:21;;;;;;;10.70;5.43;;;9.50;99.90;;;;;;5074906;28;20232;-81
2023/12/20 11:10:57;;;;;;;7.85;4.60;;;9.60;99.90;;;;;;5063168;28;20231;-81
2023/12/20 11:13:28;;;;;;;12.43;6.00;;;9.50;99.90;;;;;;5074781;28;20258;-81
2023/12/20 11:15:57;;;;;;;10.23;5.43;;;9.60;99.90;;;;;;5073912;28;20223;-82
2023/12/20 11:18:30;;;;;;;11.55;5.30;;;9.60;99.90;;;;;;5074120;28;20230;-82
2023/12/20 11:21:03;;;;;;;14.25;4.57;;;9.60;99.90;;;;;;5073419;28;20651;-82
2023/12/20 11:23:33;;;;;;;11.00;4.43;;;9.50;99.90;;;;;;5073109;28;20240;-82
2023/12/20 11:26:05;;;;;;;6.50;3.75;;;9.60;99.90;;;;;;5073616;28;20712;-82
2023/12/20 11:28:32;;;;;;;10.10;3.20;;;9.50;99.90;;;;;;5065912;28;20243;-81
2023/12/20 11:31:06;;;;;;;9.57;3.40;;;9.50;99.90;;;;;;5061871;28;20223;-78
2023/12/20 11:33:38;;;;;;;6.70;2.83;;;9.50;99.90;;;;;;5073611;28;20245;-78
2023/12/20 11:36:13;;;;;;;7.57;2.67;;;9.40;99.90;;;;;;5073783;28;20220;-78
2023/12/20 11:38:51;;;;;;;8.50;3.45;;;9.40;99.90;;;;;;5074628;28;20215;-78
2023/12/20 11:41:18;;;;;;;9.80;4.85;;;9.40;99.90;;;;;;5074365;28;20226;-78
2023/12/20 11:43:46;;;;;;;6.70;3.75;;;9.40;99.90;;;;;;5073577;28;20232;-78
2023/12/20 11:46:14;;;;;;;4.75;3.10;;;9.40;99.90;;;;;;5072862;28;20307;-78
2023/12/20 11:48:45;;;;;;;5.18;3.05;;;9.40;99.90;;;;;;5073020;28;20219;-78
2023/12/20 11:51:13;;;;;;;9.23;2.97;;;9.40;99.90;;;;;;5072119;28;20224;-82
2023/12/20 11:53:42;;;;;;;8.60;5.20;;;9.40;99.90;;;;;;5073729;28;20676;-78
2023/12/20 11:56:12;;;;;;;16.27;4.00;;;9.40;99.90;;;;;;5073273;28;20293;-79
2023/12/20 11:58:39;;;;;;;10.07;4.35;;;9.40;99.90;;;;;;5074066;28;20618;-78
2023/12/20 12:01:10;;;;;;;6.45;2.85;;;9.40;99.90;;;;;;5063288;28;20217;-78
2023/12/20 12:04:10;;;;;;;8.52;3.45;;;9.40;99.90;;;;;;5071927;28;20236;-78
2023/12/20 12:06:40;;;;;;;7.82;2.85;;;9.40;99.90;;;;;;5074037;28;20554;-78
2023/12/20 12:09:07;;;;;;;5.00;2.40;;;9.40;99.90;;;;;;5073316;28;20231;-78
2023/12/20 12:11:34;;;;;;;7.55;3.92;;;9.40;99.90;;;;;;5076985;28;20224;-78
2023/12/20 12:14:02;;;;;;;14.27;4.97;;;9.40;99.90;;;;;;5077834;28;20224;-78
2023/12/20 12:16:29;;;;;;;11.43;4.03;;;9.30;99.90;;;;;;5085998;28;20228;-81
2023/12/20 12:18:57;;;;;;;7.75;3.33;;;9.30;99.90;;;;;;5077883;28;20223;-78
2023/12/20 12:21:26;;;;;;;5.85;3.00;;;9.30;99.90;;;;;;5087443;28;20211;-78
2023/12/20 12:23:53;;;;;;;8.48;3.60;;;9.30;99.90;;;;;;5087326;28;20238;-78
2023/12/20 12:26:20;;;;;;;8.13;3.15;;;9.30;99.90;;;;;;5081448;28;20286;-78
2023/12/20 12:28:50;;;;;;;10.63;3.58;;;9.30;99.90;;;;;;5076831;28;20254;-78
2023/12/20 12:31:17;;;;;;;5.97;3.92;;;9.30;99.90;;;;;;5076991;28;20227;-78
2023/12/20 12:33:44;;;;;;;8.02;2.60;;;9.30;99.90;;;;;;5076517;28;20219;-82
2023/12/20 12:36:15;;;;;;;8.95;3.78;;;9.30;99.90;;;;;;5077171;28;20220;-79
2023/12/20 12:38:44;;;;;;;6.57;3.00;;;9.40;99.90;;;;;;5076835;28;20220;-81
2023/12/20 12:41:15;;;;;;;4.03;2.95;;;9.30;99.90;;;;;;5076051;28;20570;-81
2023/12/20 12:43:42;;;;;;;3.90;2.58;;;9.30;99.90;;;;;;5080978;28;20796;-82
2023/12/20 12:46:09;;;;;;;3.70;3.10;;;9.30;99.90;;;;;;5075802;28;20223;-81
2023/12/20 12:48:36;;;;;;;7.47;2.70;;;9.30;99.90;;;;;;5076772;28;20244;-80
2023/12/20 12:51:04;;;;;;;8.48;2.90;;;9.30;99.90;;;;;;5075784;28;20228;-81
2023/12/20 12:53:31;;;;;;;6.32;3.38;;;9.20;99.90;;;;;;5075118;28;20224;-82
2023/12/20 12:56:02;;;;;;;8.43;3.70;;;9.10;99.90;;;;;;5075527;28;20227;-81
2023/12/20 12:58:30;;;;;;;8.23;4.40;;;9.20;99.90;;;;;;5076163;28;20285;-82
2023/12/20 13:00:57;;;;;;;7.07;3.30;;;9.20;99.90;;;;;;5067280;28;20228;-81
2023/12/20 13:03:26;;;;;;;7.03;3.15;;;9.20;99.90;;;;;;5075895;28;20231;-81
2023/12/20 13:05:53;;;;;;;4.95;3.45;;;9.20;99.90;;;;;;5073891;28;20232;-81
2023/12/20 13:08:20;;;;;;;5.97;3.42;;;9.20;99.90;;;;;;5078438;28;20511;-82
2023/12/20 13:10:50;;;;;;;10.30;4.00;;;9.10;99.90;;;;;;5075423;28;20693;-82